createdAt,value
2018-02-07T00:02:08.450Z,87.30
2018-02-07T00:04:36.086Z,87.60
2018-02-07T00:07:03.733Z,87.90
2018-02-07T00:09:31.319Z,88.00
2018-02-07T00:11:58.908Z,88.20
2018-02-07T00:14:26.499Z,88.30
2018-02-07T00:16:54.454Z,88.60
2018-02-07T00:19:22.418Z,88.60
2018-02-07T00:21:49.990Z,88.60
2018-02-07T00:24:17.551Z,88.30
2018-02-07T00:26:45.125Z,88.20
2018-02-07T00:29:13.050Z,88.00
2018-02-07T00:31:40.627Z,88.00
2018-02-07T00:34:08.196Z,88.00
2018-02-07T00:36:36.158Z,88.00
2018-02-07T00:39:04.096Z,88.50
2018-02-07T00:41:31.940Z,88.50
2018-02-07T00:43:59.506Z,88.40
2018-02-07T00:46:27.090Z,88.30
2018-02-07T00:48:54.653Z,88.00
2018-02-07T00:51:22.443Z,88.10
2018-02-07T00:53:50.433Z,88.10
2018-02-07T00:56:18.374Z,88.00
2018-02-07T00:58:46.747Z,88.00
2018-02-07T01:01:14.734Z,88.00
2018-02-07T01:03:42.681Z,88.30
2018-02-07T01:06:10.225Z,88.30
2018-02-07T01:08:37.794Z,88.60
2018-02-07T01:11:05.423Z,88.60
2018-02-07T01:13:33.074Z,88.60
2018-02-07T01:16:00.634Z,88.60
2018-02-07T01:18:28.211Z,88.70
2018-02-07T01:20:55.767Z,88.70
2018-02-07T01:23:23.353Z,88.80
2018-02-07T01:25:50.904Z,88.80
2018-02-07T01:28:18.493Z,88.90
2018-02-07T01:30:46.466Z,89.20
2018-02-07T01:33:14.429Z,89.10
2018-02-07T01:35:42.435Z,89.20
2018-02-07T01:38:10.789Z,89.20
2018-02-07T01:40:38.335Z,89.20
2018-02-07T01:43:06.360Z,89.30
2018-02-07T01:45:33.951Z,89.30
2018-02-07T01:48:01.512Z,89.10
2018-02-07T01:50:29.067Z,88.90
2018-02-07T01:52:56.638Z,88.90
2018-02-07T01:55:24.599Z,88.80
2018-02-07T01:57:52.133Z,88.80
2018-02-07T02:00:19.718Z,89.10
2018-02-07T02:02:47.236Z,89.20
2018-02-07T02:05:15.298Z,89.50
2018-02-07T02:07:42.825Z,89.40
2018-02-07T02:10:10.724Z,89.40
2018-02-07T02:12:38.356Z,89.60
2018-02-07T02:15:06.320Z,89.40
2018-02-07T02:17:34.288Z,89.70
2018-02-07T02:20:02.262Z,89.80
2018-02-07T02:22:29.802Z,89.80
2018-02-07T02:24:57.376Z,89.90
2018-02-07T02:27:24.950Z,89.90
2018-02-07T02:29:52.939Z,89.80
2018-02-07T02:32:20.509Z,89.80
2018-02-07T02:34:48.046Z,89.70
2018-02-07T02:37:15.630Z,89.70
2018-02-07T02:39:43.246Z,89.80
2018-02-07T02:42:10.784Z,89.80
2018-02-07T02:44:38.337Z,90.00
2018-02-07T02:47:05.872Z,89.90
2018-02-07T02:49:33.417Z,90.00
2018-02-07T02:52:00.984Z,90.00
2018-02-07T02:54:28.553Z,90.20
2018-02-07T02:56:56.595Z,90.30
2018-02-07T02:59:24.156Z,90.00
2018-02-07T03:01:51.716Z,89.70
2018-02-07T03:04:19.279Z,89.60
2018-02-07T03:06:46.853Z,89.50
2018-02-07T03:09:14.405Z,89.90
2018-02-07T03:11:41.972Z,89.70
2018-02-07T03:14:09.552Z,89.50
2018-02-07T03:16:37.113Z,89.80
2018-02-07T03:19:04.666Z,89.70
2018-02-07T03:21:32.238Z,89.60
2018-02-07T03:24:01.818Z,89.60
2018-02-07T03:26:29.371Z,89.50
2018-02-07T03:28:56.932Z,89.70
2018-02-07T03:31:24.538Z,89.70
2018-02-07T03:33:52.949Z,89.70
2018-02-07T03:36:20.499Z,89.60
2018-02-07T03:38:48.439Z,89.80
2018-02-07T03:41:16.026Z,89.80
2018-02-07T03:43:43.962Z,89.90
2018-02-07T03:46:11.506Z,89.90
2018-02-07T03:48:39.065Z,89.90
2018-02-07T03:51:06.655Z,90.00
2018-02-07T03:53:34.262Z,89.80
2018-02-07T03:56:01.790Z,89.90
2018-02-07T03:58:29.779Z,89.70
2018-02-07T04:00:57.337Z,89.70
2018-02-07T04:03:24.892Z,89.70
2018-02-07T04:05:52.453Z,89.90
2018-02-07T04:08:20.086Z,90.20
2018-02-07T04:10:47.689Z,90.20
2018-02-07T04:13:15.268Z,90.20
2018-02-07T04:15:42.785Z,90.10
2018-02-07T04:18:10.348Z,89.90
2018-02-07T04:20:37.937Z,90.00
2018-02-07T04:23:05.491Z,90.40
2018-02-07T04:25:33.062Z,90.40
2018-02-07T04:28:00.624Z,90.40
2018-02-07T04:30:28.202Z,90.80
2018-02-07T04:32:55.768Z,90.90
2018-02-07T04:35:23.331Z,90.80
2018-02-07T04:37:50.905Z,90.60
2018-02-07T04:40:19.844Z,90.60
2018-02-07T04:42:47.424Z,90.60
2018-02-07T04:45:14.984Z,90.80
2018-02-07T04:47:42.550Z,91.00
2018-02-07T04:50:10.129Z,91.20
2018-02-07T04:52:37.686Z,91.20
2018-02-07T04:55:05.222Z,91.30
2018-02-07T04:57:32.816Z,91.40
2018-02-07T05:00:00.365Z,91.40
2018-02-07T05:02:28.021Z,91.30
2018-02-07T05:04:55.599Z,91.30
2018-02-07T05:07:23.539Z,91.20
2018-02-07T05:09:51.089Z,91.20
2018-02-07T05:12:18.660Z,91.00
2018-02-07T05:14:46.194Z,91.00
2018-02-07T05:17:13.744Z,91.20
2018-02-07T05:19:41.288Z,91.10
2018-02-07T05:22:08.816Z,91.30
2018-02-07T05:27:26.472Z,91.50
2018-02-07T05:29:54.013Z,91.50
2018-02-07T05:32:21.589Z,91.60
2018-02-07T05:34:51.410Z,91.70
2018-02-07T05:37:19.117Z,91.60
2018-02-07T05:39:47.605Z,91.60
2018-02-07T05:42:15.946Z,91.50
2018-02-07T05:44:43.505Z,91.50
2018-02-07T05:47:18.277Z,91.50
2018-02-07T05:49:59.128Z,91.40
2018-02-07T05:52:26.742Z,91.40
2018-02-07T05:54:54.278Z,91.40
2018-02-07T05:57:22.536Z,91.50
2018-02-07T06:02:44.237Z,91.20
2018-02-07T06:05:12.196Z,91.30
2018-02-07T06:07:39.759Z,91.20
2018-02-07T06:10:07.740Z,91.30
2018-02-07T06:12:35.702Z,91.40
2018-02-07T06:15:03.287Z,91.40
2018-02-07T06:17:30.847Z,91.50
2018-02-07T06:19:58.491Z,91.50
2018-02-07T06:22:26.121Z,91.60
2018-02-07T06:24:54.051Z,91.40
2018-02-07T06:27:22.426Z,91.40
2018-02-07T06:29:50.001Z,91.20
2018-02-07T06:32:17.606Z,91.00
2018-02-07T06:34:45.536Z,91.00
2018-02-07T06:37:13.120Z,91.00
2018-02-07T06:39:40.681Z,91.40
2018-02-07T06:42:09.041Z,91.10
2018-02-07T06:44:36.626Z,91.20
2018-02-07T06:47:04.649Z,91.00
2018-02-07T06:49:32.235Z,91.10
2018-02-07T06:51:59.792Z,90.90
2018-02-07T06:54:27.366Z,91.00
2018-02-07T06:56:55.351Z,91.30
2018-02-07T06:59:23.588Z,91.30
2018-02-07T07:01:51.113Z,91.30
2018-02-07T07:04:18.671Z,91.30
2018-02-07T07:06:46.234Z,91.20
2018-02-07T07:09:13.816Z,91.40
2018-02-07T07:11:41.817Z,91.40
2018-02-07T07:14:09.376Z,91.30
2018-02-07T07:16:37.589Z,91.40
2018-02-07T07:19:05.143Z,91.40
2018-02-07T07:21:32.778Z,91.20
2018-02-07T07:24:01.907Z,90.80
2018-02-07T07:26:29.454Z,90.70
2018-02-07T07:28:57.002Z,90.70
2018-02-07T07:31:24.981Z,90.60
2018-02-07T07:33:52.942Z,90.40
2018-02-07T07:36:20.489Z,90.40
2018-02-07T07:38:48.068Z,89.60
2018-02-07T07:41:16.033Z,89.40
2018-02-07T07:43:43.968Z,89.50
2018-02-07T07:46:11.539Z,89.50
2018-02-07T07:48:39.098Z,89.60
2018-02-07T07:51:06.657Z,89.50
2018-02-07T07:53:34.242Z,89.70
2018-02-07T07:56:02.276Z,89.60
2018-02-07T07:58:29.838Z,89.60
2018-02-07T08:00:57.442Z,89.40
2018-02-07T08:03:25.005Z,89.60
2018-02-07T08:05:52.639Z,89.80
2018-02-07T08:08:20.593Z,90.20
2018-02-07T08:10:48.193Z,90.20
2018-02-07T08:13:15.746Z,90.30
2018-02-07T08:18:46.628Z,89.20
2018-02-07T08:21:14.180Z,89.20
2018-02-07T08:23:41.750Z,89.20
2018-02-07T08:26:09.301Z,89.00
2018-02-07T08:28:36.859Z,88.90
2018-02-07T08:31:04.455Z,89.00
2018-02-07T08:33:31.968Z,88.50
2018-02-07T08:35:59.518Z,88.60
2018-02-07T08:38:27.093Z,88.40
2018-02-07T08:40:54.622Z,88.80
2018-02-07T08:43:22.253Z,88.30
2018-02-07T08:45:49.821Z,88.10
2018-02-07T08:48:18.213Z,86.70
2018-02-07T08:50:46.188Z,85.60
2018-02-07T08:53:14.189Z,85.50
2018-02-07T08:55:41.746Z,85.50
2018-02-07T08:58:09.317Z,84.80
2018-02-07T09:00:36.883Z,84.40
2018-02-07T09:03:04.473Z,84.50
2018-02-07T09:05:32.025Z,84.20
2018-02-07T09:07:59.584Z,83.00
2018-02-07T09:10:27.121Z,83.70
2018-02-07T09:12:54.691Z,83.70
2018-02-07T09:15:22.249Z,83.70
2018-02-07T09:17:49.818Z,84.70
2018-02-07T09:20:17.918Z,83.40
2018-02-07T09:22:45.428Z,83.40
2018-02-07T09:25:13.013Z,82.90
2018-02-07T09:27:40.598Z,82.60
2018-02-07T09:30:08.170Z,82.10
2018-02-07T09:32:35.702Z,82.10
2018-02-07T09:35:03.239Z,81.80
2018-02-07T09:37:30.852Z,81.50
2018-02-07T09:39:58.471Z,81.90
2018-02-07T09:42:26.010Z,81.70
2018-02-07T09:44:53.555Z,81.80
2018-02-07T09:47:21.290Z,80.40
2018-02-07T09:49:49.235Z,79.80
2018-02-07T09:52:16.761Z,79.80
2018-02-07T09:54:44.334Z,78.90
2018-02-07T09:57:11.898Z,78.50
2018-02-07T09:59:39.461Z,77.80
2018-02-07T10:02:07.005Z,76.50
2018-02-07T10:04:35.506Z,76.60
2018-02-07T10:07:05.227Z,75.60
2018-02-07T10:09:32.823Z,75.60
2018-02-07T10:12:00.395Z,75.10
2018-02-07T10:14:28.983Z,74.10
2018-02-07T10:16:57.609Z,74.50
2018-02-07T10:19:25.215Z,72.30
2018-02-07T10:21:52.805Z,72.50
2018-02-07T10:24:21.334Z,71.30
2018-02-07T10:26:48.896Z,71.30
2018-02-07T10:29:16.727Z,71.60
2018-02-07T10:31:44.283Z,72.50
2018-02-07T10:34:14.202Z,71.80
2018-02-07T10:36:41.799Z,72.50
2018-02-07T10:39:10.607Z,71.70
2018-02-07T10:41:38.188Z,71.70
2018-02-07T10:44:05.759Z,72.00
2018-02-07T10:46:35.682Z,71.50
2018-02-07T10:49:03.504Z,71.90
2018-02-07T10:51:32.366Z,70.50
2018-02-07T10:54:00.705Z,70.30
2018-02-07T10:56:29.940Z,70.30
2018-02-07T10:58:57.922Z,71.40
2018-02-07T11:01:25.578Z,71.40
2018-02-07T11:03:54.299Z,70.70
2018-02-07T11:06:23.754Z,70.70
2018-02-07T11:08:51.310Z,71.10
2018-02-07T11:11:18.885Z,68.50
2018-02-07T11:13:47.911Z,70.10
2018-02-07T11:16:15.465Z,70.10
2018-02-07T11:18:43.621Z,66.90
2018-02-07T11:21:11.162Z,64.60
2018-02-07T11:23:39.202Z,63.80
2018-02-07T11:26:07.719Z,63.80
2018-02-07T11:28:36.264Z,59.10
2018-02-07T11:31:03.892Z,59.10
2018-02-07T11:33:32.122Z,59.30
2018-02-07T11:35:59.717Z,59.00
2018-02-07T11:38:27.861Z,58.60
2018-02-07T11:40:55.404Z,59.30
2018-02-07T11:43:23.537Z,59.90
2018-02-07T11:45:51.983Z,61.10
2018-02-07T11:48:20.068Z,62.00
2018-02-07T11:50:48.818Z,62.30
2018-02-07T11:53:16.453Z,64.50
2018-02-07T11:55:44.810Z,67.10
2018-02-07T11:58:12.403Z,67.90
2018-02-07T12:00:40.116Z,67.60
2018-02-07T12:03:08.724Z,66.60
2018-02-07T12:05:38.102Z,64.70
2018-02-07T12:08:06.428Z,63.40
2018-02-07T12:10:34.013Z,61.90
2018-02-07T12:13:01.618Z,59.60
2018-02-07T12:15:31.054Z,59.80
2018-02-07T12:17:59.813Z,59.30
2018-02-07T12:20:27.405Z,58.40
2018-02-07T12:22:54.970Z,57.50
2018-02-07T12:25:23.654Z,56.70
2018-02-07T12:27:52.175Z,56.10
2018-02-07T12:30:21.740Z,56.20
2018-02-07T12:32:49.368Z,56.20
2018-02-07T12:35:18.094Z,55.80
2018-02-07T12:37:45.793Z,58.60
2018-02-07T12:40:14.890Z,59.40
2018-02-07T12:42:43.673Z,58.30
2018-02-07T12:45:12.631Z,59.20
2018-02-07T12:47:41.137Z,59.30
2018-02-07T12:50:08.705Z,59.20
2018-02-07T12:52:37.667Z,61.60
2018-02-07T12:55:05.993Z,60.30
2018-02-07T12:57:33.574Z,61.00
2018-02-07T13:00:02.899Z,61.80
2018-02-07T13:02:30.533Z,61.30
2018-02-07T13:04:58.946Z,61.40
2018-02-07T13:07:27.900Z,60.20
2018-02-07T13:09:56.199Z,57.40
2018-02-07T13:12:23.765Z,56.80
2018-02-07T13:14:51.534Z,55.80
2018-02-07T13:17:19.095Z,54.20
2018-02-07T13:19:49.036Z,53.40
2018-02-07T13:22:16.986Z,53.70
2018-02-07T13:24:45.447Z,53.70
2018-02-07T13:27:13.272Z,54.40
2018-02-07T13:29:42.162Z,56.50
2018-02-07T13:32:09.793Z,56.50
2018-02-07T13:34:37.767Z,55.70
2018-02-07T13:37:05.300Z,55.80
2018-02-07T13:39:33.887Z,55.70
2018-02-07T13:42:01.434Z,57.80
2018-02-07T13:44:29.937Z,59.10
2018-02-07T13:46:57.518Z,59.70
2018-02-07T13:49:26.455Z,58.90
2018-02-07T13:51:54.830Z,58.90
2018-02-07T13:54:22.434Z,59.50
2018-02-07T13:56:50.109Z,59.00
2018-02-07T13:59:18.082Z,58.90
2018-02-07T14:01:47.474Z,57.70
2018-02-07T14:04:16.464Z,57.70
2018-02-07T14:06:44.796Z,59.50
2018-02-07T14:09:12.570Z,58.50
2018-02-07T14:11:40.159Z,59.60
2018-02-07T14:14:07.702Z,61.00
2018-02-07T14:16:36.683Z,59.60
2018-02-07T14:19:04.696Z,60.30
2018-02-07T14:21:32.654Z,60.20
2018-02-07T14:24:00.424Z,60.20
2018-02-07T14:26:28.400Z,58.50
2018-02-07T14:28:56.348Z,58.40
2018-02-07T14:31:24.333Z,57.60
2018-02-07T14:33:53.970Z,57.60
2018-02-07T14:36:23.450Z,57.10
2018-02-07T14:38:51.519Z,57.50
2018-02-07T14:41:21.618Z,57.20
2018-02-07T14:43:49.641Z,57.20
2018-02-07T14:46:18.731Z,56.50
2018-02-07T14:48:46.362Z,56.00
2018-02-07T14:51:14.965Z,56.60
2018-02-07T14:53:44.266Z,56.60
2018-02-07T14:56:12.160Z,57.70
2018-02-07T14:58:39.782Z,58.20
2018-02-07T15:01:09.362Z,59.90
2018-02-07T15:03:38.119Z,59.90
2018-02-07T15:06:05.718Z,60.50
2018-02-07T15:08:34.475Z,62.20
2018-02-07T15:11:03.622Z,62.20
2018-02-07T15:13:33.303Z,63.50
2018-02-07T15:16:01.207Z,64.80
2018-02-07T15:18:29.638Z,66.10
2018-02-07T15:20:57.608Z,67.30
2018-02-07T15:23:26.973Z,67.30
2018-02-07T15:25:54.538Z,68.20
2018-02-07T15:28:22.863Z,69.20
2018-02-07T15:30:52.011Z,69.70
2018-02-07T15:33:19.589Z,69.70
2018-02-07T15:35:47.425Z,70.30
2018-02-07T15:38:15.934Z,70.70
2018-02-07T15:40:43.500Z,70.70
2018-02-07T15:43:11.099Z,71.10
2018-02-07T15:45:39.841Z,71.40
2018-02-07T15:48:07.465Z,71.40
2018-02-07T15:50:35.302Z,72.20
2018-02-07T15:53:03.005Z,72.50
2018-02-07T15:55:30.543Z,72.80
2018-02-07T15:57:58.116Z,72.70
2018-02-07T16:00:25.772Z,73.30
2018-02-07T16:02:53.388Z,73.90
2018-02-07T16:05:20.947Z,74.70
2018-02-07T16:07:50.012Z,75.20
2018-02-07T16:10:17.600Z,75.40
2018-02-07T16:12:46.257Z,75.80
2018-02-07T16:15:13.869Z,76.20
2018-02-07T16:17:45.662Z,76.90
2018-02-07T16:20:13.225Z,77.20
2018-02-07T16:22:41.604Z,77.20
2018-02-07T16:25:09.144Z,77.40
2018-02-07T16:27:37.043Z,77.20
2018-02-07T16:30:04.589Z,77.80
2018-02-07T16:32:32.212Z,78.20
2018-02-07T16:34:59.888Z,78.40
2018-02-07T16:37:28.145Z,78.90
2018-02-07T16:39:56.082Z,80.00
2018-02-07T16:42:25.853Z,80.10
2018-02-07T16:44:53.490Z,80.30
2018-02-07T16:47:23.101Z,81.10
2018-02-07T16:49:52.033Z,81.40
2018-02-07T16:52:19.736Z,81.40
2018-02-07T16:54:47.825Z,81.10
2018-02-07T16:57:15.469Z,81.40
2018-02-07T16:59:43.023Z,81.30
2018-02-07T17:02:10.686Z,81.50
2018-02-07T17:04:38.225Z,81.70
2018-02-07T17:07:05.792Z,82.00
2018-02-07T17:09:33.373Z,82.10
2018-02-07T17:12:00.990Z,82.00
2018-02-07T17:14:28.541Z,82.00
2018-02-07T17:16:56.102Z,81.80
2018-02-07T17:19:23.949Z,81.70
2018-02-07T17:21:51.509Z,82.00
2018-02-07T17:24:21.293Z,82.00
2018-02-07T17:26:48.862Z,82.10
2018-02-07T17:29:16.393Z,82.20
2018-02-07T17:31:43.970Z,82.40
2018-02-07T17:34:11.497Z,82.40
2018-02-07T17:36:39.044Z,82.40
2018-02-07T17:39:06.630Z,82.20
2018-02-07T17:41:34.184Z,82.30
2018-02-07T17:44:01.840Z,82.10
2018-02-07T17:46:29.405Z,82.00
2018-02-07T17:48:56.995Z,81.30
2018-02-07T17:51:24.953Z,80.60
2018-02-07T17:53:52.935Z,80.20
2018-02-07T17:56:20.817Z,80.20
2018-02-07T17:58:48.408Z,80.40
2018-02-07T18:01:17.113Z,79.60
2018-02-07T18:03:44.827Z,79.20
2018-02-07T18:06:12.443Z,78.70
2018-02-07T18:08:40.031Z,78.00
2018-02-07T18:11:07.642Z,77.80
2018-02-07T18:13:35.239Z,77.30
2018-02-07T18:16:02.845Z,77.20
2018-02-07T18:18:30.440Z,77.30
2018-02-07T18:20:58.565Z,77.50
2018-02-07T18:23:26.118Z,77.60
2018-02-07T18:25:54.097Z,78.10
2018-02-07T18:28:21.734Z,78.10
2018-02-07T18:30:49.310Z,78.70
2018-02-07T18:33:17.278Z,80.80
2018-02-07T18:35:46.115Z,80.90
2018-02-07T18:38:15.511Z,80.90
2018-02-07T18:40:43.121Z,81.30
2018-02-07T18:43:11.096Z,82.30
2018-02-07T18:45:38.671Z,82.30
2018-02-07T18:48:06.250Z,82.70
2018-02-07T18:50:33.799Z,82.80
2018-02-07T18:53:01.366Z,82.20
2018-02-07T18:55:31.511Z,82.40
2018-02-07T18:57:59.074Z,82.60
2018-02-07T19:00:27.470Z,82.80
2018-02-07T19:02:55.035Z,83.20
2018-02-07T19:05:22.964Z,83.30
2018-02-07T19:07:50.564Z,83.30
2018-02-07T19:10:18.525Z,83.80
2018-02-07T19:12:47.196Z,84.10
2018-02-07T19:15:14.753Z,84.10
2018-02-07T19:17:42.290Z,84.20
2018-02-07T19:20:09.908Z,84.40
2018-02-07T19:22:37.882Z,84.20
2018-02-07T19:25:05.444Z,84.20
2018-02-07T19:27:33.034Z,84.60
2018-02-07T19:30:00.768Z,84.60
2018-02-07T19:32:29.589Z,84.40
2018-02-07T19:35:04.117Z,84.40
2018-02-07T19:37:31.771Z,84.70
2018-02-07T19:40:00.465Z,84.50
2018-02-07T19:42:28.831Z,84.50
2018-02-07T19:44:56.559Z,84.80
2018-02-07T19:47:24.103Z,84.90
2018-02-07T19:49:53.034Z,84.80
2018-02-07T19:52:25.288Z,84.80
2018-02-07T19:54:53.260Z,85.00
2018-02-07T19:57:20.825Z,85.00
2018-02-07T19:59:48.415Z,84.80
2018-02-07T20:02:16.028Z,85.00
2018-02-07T20:04:44.034Z,84.80
2018-02-07T20:07:11.605Z,84.80
2018-02-07T20:09:39.257Z,84.80
2018-02-07T20:12:09.642Z,85.00
2018-02-07T20:14:37.573Z,84.40
2018-02-07T20:17:05.949Z,84.30
2018-02-07T20:19:33.518Z,84.40
2018-02-07T20:22:01.297Z,84.70
2018-02-07T20:24:28.858Z,84.80
2018-02-07T20:26:56.400Z,85.10
2018-02-07T20:29:25.018Z,85.50
2018-02-07T20:31:52.593Z,85.60
2018-02-07T20:34:20.213Z,85.70
2018-02-07T20:36:47.798Z,85.90
2018-02-07T20:39:15.762Z,86.20
2018-02-07T20:41:43.713Z,86.40
2018-02-07T20:44:11.273Z,86.40
2018-02-07T20:46:38.878Z,86.30
2018-02-07T20:49:06.508Z,86.70
2018-02-07T20:51:37.953Z,86.80
2018-02-07T20:54:07.068Z,86.80
2018-02-07T20:56:35.505Z,86.80
2018-02-07T20:59:04.078Z,86.90
2018-02-07T21:01:31.684Z,86.60
2018-02-07T21:04:00.040Z,86.40
2018-02-07T21:06:27.615Z,86.30
2018-02-07T21:08:55.604Z,86.20
2018-02-07T21:11:23.606Z,86.10
2018-02-07T21:13:51.180Z,86.00
2018-02-07T21:16:18.797Z,86.20
2018-02-07T21:18:47.685Z,86.20
2018-02-07T21:21:15.298Z,86.20
2018-02-07T21:23:42.922Z,86.30
2018-02-07T21:26:10.889Z,86.30
2018-02-07T21:28:38.462Z,86.50
2018-02-07T21:31:06.243Z,86.50
2018-02-07T21:33:33.858Z,86.60
2018-02-07T21:36:01.434Z,86.70
2018-02-07T21:38:29.075Z,86.60
2018-02-07T21:40:57.033Z,86.10
2018-02-07T21:43:24.981Z,85.90
2018-02-07T21:45:52.603Z,85.90
2018-02-07T21:48:20.176Z,85.90
2018-02-07T21:50:47.826Z,86.10
2018-02-07T21:53:15.369Z,86.40
2018-02-07T21:55:42.918Z,86.20
2018-02-07T21:58:10.471Z,86.00
2018-02-07T22:00:38.051Z,86.10
2018-02-07T22:03:05.590Z,86.40
2018-02-07T22:05:33.171Z,86.70
2018-02-07T22:08:01.325Z,86.90
2018-02-07T22:10:28.905Z,86.90
2018-02-07T22:12:56.465Z,86.80
2018-02-07T22:15:24.020Z,86.30
2018-02-07T22:17:51.591Z,86.30
2018-02-07T22:20:19.118Z,86.20
2018-02-07T22:22:46.682Z,86.10
2018-02-07T22:25:14.937Z,86.00
2018-02-07T22:27:42.486Z,86.00
2018-02-07T22:30:10.024Z,86.20
2018-02-07T22:32:37.625Z,86.40
2018-02-07T22:35:05.177Z,86.30
2018-02-07T22:37:33.178Z,86.30
2018-02-07T22:40:00.738Z,86.30
2018-02-07T22:42:28.285Z,86.70
2018-02-07T22:44:56.099Z,86.90
2018-02-07T22:47:23.685Z,86.90
2018-02-07T22:49:51.238Z,87.30
2018-02-07T22:52:18.802Z,86.80
2018-02-07T22:54:46.778Z,86.60
2018-02-07T22:57:14.949Z,86.30
2018-02-07T22:59:42.908Z,85.90
2018-02-07T23:02:10.840Z,85.90
2018-02-07T23:04:38.394Z,85.90
2018-02-07T23:07:05.985Z,85.70
2018-02-07T23:09:33.578Z,85.80
2018-02-07T23:12:01.518Z,84.90
2018-02-07T23:14:29.066Z,84.90
2018-02-07T23:16:56.617Z,85.00
2018-02-07T23:19:24.197Z,85.50
2018-02-07T23:21:51.772Z,85.10
2018-02-07T23:24:19.762Z,85.50
2018-02-07T23:26:47.309Z,85.50
2018-02-07T23:29:15.277Z,85.50
2018-02-07T23:31:43.241Z,85.30
2018-02-07T23:34:10.845Z,85.30
2018-02-07T23:36:38.853Z,85.30
2018-02-07T23:39:06.396Z,84.80
2018-02-07T23:41:34.735Z,85.00
2018-02-07T23:44:02.310Z,84.90
2018-02-07T23:46:29.884Z,84.60
2018-02-07T23:48:57.439Z,84.60
2018-02-07T23:51:25.028Z,85.30
2018-02-07T23:53:53.601Z,85.40
2018-02-07T23:56:21.163Z,85.40
2018-02-07T23:58:48.721Z,85.60
